createdAt,value
2019-03-23T00:00:32.714Z,1023.11
2019-03-23T00:01:32.732Z,1023.10
2019-03-23T00:02:32.818Z,1023.10
2019-03-23T00:03:32.737Z,1023.12
2019-03-23T00:04:32.760Z,1023.09
2019-03-23T00:05:32.740Z,1023.09
2019-03-23T00:06:32.731Z,1023.05
2019-03-23T00:07:32.749Z,1023.04
2019-03-23T00:08:32.802Z,1023.03
2019-03-23T00:09:32.794Z,1023.06
2019-03-23T00:10:32.759Z,1023.04
2019-03-23T00:11:32.794Z,1023.03
2019-03-23T00:12:32.774Z,1023.00
2019-03-23T00:13:32.830Z,1023.02
2019-03-23T00:14:32.785Z,1022.96
2019-03-23T00:15:32.779Z,1022.95
2019-03-23T00:16:32.828Z,1022.95
2019-03-23T00:17:32.847Z,1022.93
2019-03-23T00:18:32.818Z,1022.93
2019-03-23T00:19:32.817Z,1022.94
2019-03-23T00:20:32.808Z,1022.94
2019-03-23T00:21:32.816Z,1022.90
2019-03-23T00:22:32.856Z,1022.88
2019-03-23T00:23:32.842Z,1022.91
2019-03-23T00:24:32.878Z,1022.90
2019-03-23T00:25:32.840Z,1022.89
2019-03-23T00:26:32.842Z,1022.91
2019-03-23T00:27:32.851Z,1022.92
2019-03-23T00:28:32.851Z,1022.94
2019-03-23T00:29:32.847Z,1022.89
2019-03-23T00:30:32.913Z,1022.90
2019-03-23T00:31:32.857Z,1022.86
2019-03-23T00:32:32.863Z,1022.82
2019-03-23T00:33:32.878Z,1022.80
2019-03-23T00:34:32.931Z,1022.78
2019-03-23T00:35:32.889Z,1022.81
2019-03-23T00:36:41.089Z,1022.77
2019-03-23T00:37:32.916Z,1022.77
2019-03-23T00:38:32.913Z,1022.76
2019-03-23T00:39:32.916Z,1022.74
2019-03-23T00:40:32.908Z,1022.71
2019-03-23T00:41:32.940Z,1022.70
2019-03-23T00:42:32.948Z,1022.64
2019-03-23T00:43:32.934Z,1022.62
2019-03-23T00:44:32.967Z,1022.63
2019-03-23T00:45:32.972Z,1022.60
2019-03-23T00:46:33.002Z,1022.61
2019-03-23T00:47:32.958Z,1022.58
2019-03-23T00:48:32.963Z,1022.60
2019-03-23T00:49:32.973Z,1022.60
2019-03-23T00:50:32.970Z,1022.56
2019-03-23T00:51:32.954Z,1022.54
2019-03-23T00:52:32.987Z,1022.52
2019-03-23T00:53:32.973Z,1022.51
2019-03-23T00:54:32.976Z,1022.51
2019-03-23T00:55:32.989Z,1022.47
2019-03-23T00:56:32.990Z,1022.44
2019-03-23T00:57:33.039Z,1022.46
2019-03-23T00:58:32.993Z,1022.41
2019-03-23T00:59:32.999Z,1022.45
2019-03-23T01:00:33.014Z,1022.44
2019-03-23T01:01:33.032Z,1022.43
2019-03-23T01:02:33.035Z,1022.39
2019-03-23T01:03:33.042Z,1022.44
2019-03-23T01:04:33.030Z,1022.38
2019-03-23T01:05:33.034Z,1022.38
2019-03-23T01:06:33.061Z,1022.36
2019-03-23T01:07:33.038Z,1022.39
2019-03-23T01:08:33.061Z,1022.30
2019-03-23T01:09:33.107Z,1022.35
2019-03-23T01:10:33.055Z,1022.35
2019-03-23T01:11:33.092Z,1022.35
2019-03-23T01:12:33.103Z,1022.34
2019-03-23T01:13:33.183Z,1022.35
2019-03-23T01:14:33.080Z,1022.28
2019-03-23T01:15:33.070Z,1022.28
2019-03-23T01:16:33.152Z,1022.30
2019-03-23T01:17:33.116Z,1022.28
2019-03-23T01:18:33.098Z,1022.26
2019-03-23T01:19:33.098Z,1022.26
2019-03-23T01:20:33.142Z,1022.30
2019-03-23T01:21:33.117Z,1022.25
2019-03-23T01:22:33.150Z,1022.26
2019-03-23T01:23:33.141Z,1022.26
2019-03-23T01:24:33.128Z,1022.31
2019-03-23T01:25:33.155Z,1022.29
2019-03-23T01:26:33.137Z,1022.26
2019-03-23T01:27:33.154Z,1022.26
2019-03-23T01:28:33.188Z,1022.20
2019-03-23T01:29:33.576Z,1022.18
2019-03-23T01:30:33.161Z,1022.16
2019-03-23T01:31:33.181Z,1022.18
2019-03-23T01:32:33.172Z,1022.17
2019-03-23T01:33:33.177Z,1022.16
2019-03-23T01:34:33.198Z,1022.16
2019-03-23T01:35:33.226Z,1022.16
2019-03-23T01:36:33.180Z,1022.14
2019-03-23T01:37:33.197Z,1022.15
2019-03-23T01:38:33.224Z,1022.11
2019-03-23T01:39:33.189Z,1022.10
2019-03-23T01:40:33.196Z,1022.08
2019-03-23T01:41:33.250Z,1022.08
2019-03-23T01:42:33.201Z,1022.09
2019-03-23T01:43:33.235Z,1022.08
2019-03-23T01:44:33.223Z,1022.09
2019-03-23T01:45:33.343Z,1022.06
2019-03-23T01:46:33.217Z,1022.01
2019-03-23T01:47:33.235Z,1022.00
2019-03-23T01:48:33.239Z,1021.96
2019-03-23T01:49:33.248Z,1021.96
2019-03-23T01:50:33.257Z,1021.95
2019-03-23T01:51:33.290Z,1021.91
2019-03-23T01:52:33.336Z,1021.86
2019-03-23T01:53:33.271Z,1021.86
2019-03-23T01:54:33.307Z,1021.82
2019-03-23T01:55:33.286Z,1021.81
2019-03-23T01:56:33.397Z,1021.83
2019-03-23T01:57:33.274Z,1021.82
2019-03-23T01:58:33.295Z,1021.80
2019-03-23T01:59:33.282Z,1021.82
2019-03-23T02:00:33.314Z,1021.82
2019-03-23T02:01:33.329Z,1021.81
2019-03-23T02:02:33.354Z,1021.77
2019-03-23T02:03:33.331Z,1021.76
2019-03-23T02:04:33.327Z,1021.76
2019-03-23T02:05:33.322Z,1021.75
2019-03-23T02:06:33.394Z,1021.73
2019-03-23T02:07:33.341Z,1021.77
2019-03-23T02:08:33.369Z,1021.74
2019-03-23T02:09:33.358Z,1021.76
2019-03-23T02:10:33.368Z,1021.74
2019-03-23T02:11:33.372Z,1021.78
2019-03-23T02:12:33.372Z,1021.74
2019-03-23T02:13:33.393Z,1021.78
2019-03-23T02:14:33.488Z,1021.73
2019-03-23T02:15:33.369Z,1021.72
2019-03-23T02:16:33.412Z,1021.77
2019-03-23T02:17:33.389Z,1021.72
2019-03-23T02:18:33.397Z,1021.74
2019-03-23T02:19:33.415Z,1021.73
2019-03-23T02:20:33.423Z,1021.74
2019-03-23T02:21:33.396Z,1021.71
2019-03-23T02:22:33.403Z,1021.71
2019-03-23T02:23:33.443Z,1021.68
2019-03-23T02:24:33.459Z,1021.69
2019-03-23T02:25:33.437Z,1021.69
2019-03-23T02:26:33.414Z,1021.70
2019-03-23T02:27:33.479Z,1021.67
2019-03-23T02:28:33.439Z,1021.68
2019-03-23T02:29:33.448Z,1021.67
2019-03-23T02:30:33.439Z,1021.71
2019-03-23T02:31:33.463Z,1021.71
2019-03-23T02:32:33.461Z,1021.72
2019-03-23T02:33:33.472Z,1021.68
2019-03-23T02:34:33.534Z,1021.68
2019-03-23T02:35:33.479Z,1021.68
2019-03-23T02:36:33.513Z,1021.66
2019-03-23T02:37:33.491Z,1021.63
2019-03-23T02:38:33.494Z,1021.70
2019-03-23T02:39:33.487Z,1021.65
2019-03-23T02:40:33.520Z,1021.68
2019-03-23T02:41:33.531Z,1021.59
2019-03-23T02:42:33.531Z,1021.62
2019-03-23T02:43:33.515Z,1021.58
2019-03-23T02:44:33.498Z,1021.59
2019-03-23T02:45:33.568Z,1021.61
2019-03-23T02:46:33.565Z,1021.61
2019-03-23T02:47:33.554Z,1021.64
2019-03-23T02:48:33.568Z,1021.63
2019-03-23T02:49:33.532Z,1021.67
2019-03-23T02:50:33.541Z,1021.65
2019-03-23T02:51:33.604Z,1021.69
2019-03-23T02:52:33.569Z,1021.64
2019-03-23T02:53:33.556Z,1021.67
2019-03-23T02:54:33.561Z,1021.64
2019-03-23T02:55:33.571Z,1021.68
2019-03-23T02:56:33.596Z,1021.69
2019-03-23T02:57:33.574Z,1021.71
2019-03-23T02:58:33.602Z,1021.69
2019-03-23T02:59:33.598Z,1021.71
2019-03-23T03:00:33.645Z,1021.71
2019-03-23T03:01:33.629Z,1021.70
2019-03-23T03:02:33.620Z,1021.68
2019-03-23T03:03:33.595Z,1021.67
2019-03-23T03:04:33.599Z,1021.67
2019-03-23T03:05:33.730Z,1021.65
2019-03-23T03:06:33.639Z,1021.67
2019-03-23T03:07:41.963Z,1021.65
2019-03-23T03:08:33.644Z,1021.66
2019-03-23T03:09:33.655Z,1021.67
2019-03-23T03:10:33.626Z,1021.66
2019-03-23T03:11:33.726Z,1021.66
2019-03-23T03:12:33.703Z,1021.66
2019-03-23T03:13:33.694Z,1021.66
2019-03-23T03:14:33.652Z,1021.63
2019-03-23T03:15:33.655Z,1021.68
2019-03-23T03:16:33.755Z,1021.71
2019-03-23T03:17:33.677Z,1021.66
2019-03-23T03:18:33.695Z,1021.65
2019-03-23T03:19:33.692Z,1021.61
2019-03-23T03:20:33.695Z,1021.60
2019-03-23T03:21:33.704Z,1021.59
2019-03-23T03:22:33.691Z,1021.62
2019-03-23T03:23:33.753Z,1021.67
2019-03-23T03:24:33.698Z,1021.65
2019-03-23T03:25:33.731Z,1021.68
2019-03-23T03:26:33.721Z,1021.66
2019-03-23T03:27:33.720Z,1021.64
2019-03-23T03:28:33.726Z,1021.67
2019-03-23T03:29:33.760Z,1021.68
2019-03-23T03:30:33.745Z,1021.65
2019-03-23T03:31:33.755Z,1021.67
2019-03-23T03:32:33.819Z,1021.69
2019-03-23T03:33:33.764Z,1021.67
2019-03-23T03:34:33.778Z,1021.64
2019-03-23T03:35:33.776Z,1021.67
2019-03-23T03:36:33.782Z,1021.70
2019-03-23T03:37:33.775Z,1021.71
2019-03-23T03:38:33.803Z,1021.71
2019-03-23T03:39:33.772Z,1021.72
2019-03-23T03:40:33.810Z,1021.73
2019-03-23T03:41:33.833Z,1021.69
2019-03-23T03:42:33.896Z,1021.71
2019-03-23T03:43:33.827Z,1021.69
2019-03-23T03:44:33.801Z,1021.68
2019-03-23T03:45:33.850Z,1021.65
2019-03-23T03:46:33.848Z,1021.62
2019-03-23T03:47:33.845Z,1021.64
2019-03-23T03:48:33.866Z,1021.61
2019-03-23T03:49:33.859Z,1021.64
2019-03-23T03:50:33.863Z,1021.62
2019-03-23T03:51:33.847Z,1021.58
2019-03-23T03:52:33.893Z,1021.59
2019-03-23T03:53:33.900Z,1021.53
2019-03-23T03:54:33.870Z,1021.59
2019-03-23T03:55:33.916Z,1021.56
2019-03-23T03:56:33.879Z,1021.53
2019-03-23T03:57:33.889Z,1021.50
2019-03-23T03:58:33.900Z,1021.49
2019-03-23T03:59:33.940Z,1021.49
2019-03-23T04:00:33.913Z,1021.51
2019-03-23T04:01:33.906Z,1021.50
2019-03-23T04:02:33.924Z,1021.48
2019-03-23T04:03:33.915Z,1021.53
2019-03-23T04:04:33.991Z,1021.51
2019-03-23T04:05:33.928Z,1021.47
2019-03-23T04:06:33.983Z,1021.52
2019-03-23T04:07:33.937Z,1021.48
2019-03-23T04:08:33.942Z,1021.47
2019-03-23T04:09:33.969Z,1021.49
2019-03-23T04:10:33.991Z,1021.44
2019-03-23T04:11:33.977Z,1021.44
2019-03-23T04:12:33.958Z,1021.44
2019-03-23T04:13:33.964Z,1021.45
2019-03-23T04:14:33.989Z,1021.42
2019-03-23T04:15:34.001Z,1021.41
2019-03-23T04:16:34.023Z,1021.38
2019-03-23T04:17:34.033Z,1021.39
2019-03-23T04:18:33.993Z,1021.39
2019-03-23T04:19:34.143Z,1021.38
2019-03-23T04:20:34.031Z,1021.39
2019-03-23T04:21:34.041Z,1021.37
2019-03-23T04:22:34.005Z,1021.36
2019-03-23T04:23:34.010Z,1021.36
2019-03-23T04:24:34.030Z,1021.37
2019-03-23T04:25:34.075Z,1021.37
2019-03-23T04:26:34.068Z,1021.39
2019-03-23T04:27:34.039Z,1021.36
2019-03-23T04:28:34.047Z,1021.38
2019-03-23T04:29:34.042Z,1021.39
2019-03-23T04:30:34.056Z,1021.39
2019-03-23T04:31:34.148Z,1021.39
2019-03-23T04:32:34.080Z,1021.35
2019-03-23T04:33:34.115Z,1021.34
2019-03-23T04:34:34.070Z,1021.36
2019-03-23T04:35:34.097Z,1021.32
2019-03-23T04:36:34.109Z,1021.37
2019-03-23T04:37:34.094Z,1021.38
2019-03-23T04:38:34.311Z,1021.34
2019-03-23T04:39:34.132Z,1021.36
2019-03-23T04:40:34.185Z,1021.39
2019-03-23T04:41:34.132Z,1021.39
2019-03-23T04:42:34.122Z,1021.36
2019-03-23T04:43:34.189Z,1021.38
2019-03-23T04:44:34.136Z,1021.35
2019-03-23T04:45:34.138Z,1021.34
2019-03-23T04:46:34.157Z,1021.32
2019-03-23T04:47:34.152Z,1021.35
2019-03-23T04:48:34.132Z,1021.33
2019-03-23T04:49:34.142Z,1021.27
2019-03-23T04:50:34.181Z,1021.34
2019-03-23T04:51:34.191Z,1021.32
2019-03-23T04:52:34.193Z,1021.30
2019-03-23T04:53:34.177Z,1021.32
2019-03-23T04:54:34.220Z,1021.27
2019-03-23T04:55:34.181Z,1021.31
2019-03-23T04:56:34.215Z,1021.29
2019-03-23T04:57:34.562Z,1021.34
2019-03-23T04:58:34.196Z,1021.33
2019-03-23T04:59:34.473Z,1021.33
2019-03-23T05:00:34.212Z,1021.29
2019-03-23T05:01:34.220Z,1021.32
2019-03-23T05:02:34.226Z,1021.33
2019-03-23T05:03:34.288Z,1021.29
2019-03-23T05:04:34.303Z,1021.30
2019-03-23T05:05:34.250Z,1021.31
2019-03-23T05:06:34.244Z,1021.30
2019-03-23T05:07:34.344Z,1021.28
2019-03-23T05:08:34.300Z,1021.25
2019-03-23T05:09:34.263Z,1021.25
2019-03-23T05:10:34.289Z,1021.22
2019-03-23T05:11:34.278Z,1021.21
2019-03-23T05:12:34.283Z,1021.23
2019-03-23T05:13:34.395Z,1021.21
2019-03-23T05:14:34.293Z,1021.22
2019-03-23T05:15:34.340Z,1021.20
2019-03-23T05:16:34.300Z,1021.25
2019-03-23T05:17:34.310Z,1021.21
2019-03-23T05:18:34.551Z,1021.19
2019-03-23T05:19:34.319Z,1021.18
2019-03-23T05:20:34.307Z,1021.14
2019-03-23T05:21:34.309Z,1021.15
2019-03-23T05:22:34.345Z,1021.14
2019-03-23T05:23:34.367Z,1021.19
2019-03-23T05:24:34.384Z,1021.21
2019-03-23T05:25:34.331Z,1021.17
2019-03-23T05:26:34.340Z,1021.16
2019-03-23T05:27:34.347Z,1021.14
2019-03-23T05:28:34.383Z,1021.13
2019-03-23T05:29:34.388Z,1021.10
2019-03-23T05:30:34.427Z,1021.09
2019-03-23T05:31:34.394Z,1021.11
2019-03-23T05:32:34.401Z,1021.09
2019-03-23T05:33:34.371Z,1021.09
2019-03-23T05:34:34.391Z,1021.08
2019-03-23T05:35:34.431Z,1021.08
2019-03-23T05:36:34.447Z,1021.07
2019-03-23T05:37:34.401Z,1021.08
2019-03-23T05:38:43.941Z,1021.07
2019-03-23T05:39:34.409Z,1021.06
2019-03-23T05:40:34.413Z,1021.04
2019-03-23T05:41:34.472Z,1021.10
2019-03-23T05:42:34.487Z,1021.09
2019-03-23T05:43:34.432Z,1021.08
2019-03-23T05:44:34.471Z,1021.14
2019-03-23T05:45:34.461Z,1021.11
2019-03-23T05:46:34.469Z,1021.11
2019-03-23T05:47:34.467Z,1021.08
2019-03-23T05:48:34.471Z,1021.11
2019-03-23T05:49:34.473Z,1021.12
2019-03-23T05:50:34.502Z,1021.10
2019-03-23T05:51:34.491Z,1021.09
2019-03-23T05:52:34.543Z,1021.11
2019-03-23T05:53:34.498Z,1021.11
2019-03-23T05:54:34.504Z,1021.11
2019-03-23T05:55:34.509Z,1021.12
2019-03-23T05:56:34.511Z,1021.12
2019-03-23T05:57:34.532Z,1021.11
2019-03-23T05:58:34.528Z,1021.07
2019-03-23T05:59:34.536Z,1021.12
2019-03-23T06:00:34.559Z,1021.09
2019-03-23T06:01:34.558Z,1021.11
2019-03-23T06:02:34.549Z,1021.11
2019-03-23T06:03:34.558Z,1021.11
2019-03-23T06:04:34.546Z,1021.10
2019-03-23T06:05:34.562Z,1021.11
2019-03-23T06:06:34.592Z,1021.11
2019-03-23T06:07:34.558Z,1021.12
2019-03-23T06:08:34.570Z,1021.09
2019-03-23T06:09:34.562Z,1021.12
2019-03-23T06:10:34.603Z,1021.16
2019-03-23T06:11:34.579Z,1021.12
2019-03-23T06:12:34.617Z,1021.15
2019-03-23T06:13:34.604Z,1021.11
2019-03-23T06:14:34.619Z,1021.12
2019-03-23T06:15:34.608Z,1021.13
2019-03-23T06:16:34.610Z,1021.16
2019-03-23T06:17:34.655Z,1021.10
2019-03-23T06:18:34.654Z,1021.10
2019-03-23T06:19:34.632Z,1021.08
2019-03-23T06:20:34.631Z,1021.13
2019-03-23T06:21:34.699Z,1021.14
2019-03-23T06:22:34.653Z,1021.13
2019-03-23T06:23:34.694Z,1021.19
2019-03-23T06:24:34.718Z,1021.14
2019-03-23T06:25:34.781Z,1021.20
2019-03-23T06:26:34.673Z,1021.19
2019-03-23T06:27:34.679Z,1021.19
2019-03-23T06:28:34.712Z,1021.20
2019-03-23T06:29:34.697Z,1021.18
2019-03-23T06:30:34.699Z,1021.18
2019-03-23T06:31:34.692Z,1021.19
2019-03-23T06:32:34.747Z,1021.18
2019-03-23T06:33:34.745Z,1021.23
2019-03-23T06:34:34.738Z,1021.19
2019-03-23T06:35:35.323Z,1021.23
2019-03-23T06:36:34.729Z,1021.27
2019-03-23T06:37:34.818Z,1021.26
2019-03-23T06:38:34.753Z,1021.28
2019-03-23T06:39:34.820Z,1021.27
2019-03-23T06:40:34.840Z,1021.26
2019-03-23T06:41:34.761Z,1021.26
2019-03-23T06:42:34.766Z,1021.26
2019-03-23T06:43:34.767Z,1021.27
2019-03-23T06:44:34.766Z,1021.26
2019-03-23T06:45:34.819Z,1021.26
2019-03-23T06:46:34.814Z,1021.28
2019-03-23T06:47:34.818Z,1021.30
2019-03-23T06:48:34.806Z,1021.20
2019-03-23T06:49:34.833Z,1021.23
2019-03-23T06:50:34.823Z,1021.25
2019-03-23T06:51:34.845Z,1021.24
2019-03-23T06:52:34.842Z,1021.24
2019-03-23T06:53:34.861Z,1021.23
2019-03-23T06:54:34.844Z,1021.26
2019-03-23T06:55:34.883Z,1021.28
2019-03-23T06:56:34.901Z,1021.25
2019-03-23T06:57:34.864Z,1021.20
2019-03-23T06:58:34.876Z,1021.24
2019-03-23T06:59:34.884Z,1021.23
2019-03-23T07:00:34.902Z,1021.22
2019-03-23T07:01:34.880Z,1021.23
2019-03-23T07:02:34.917Z,1021.25
2019-03-23T07:03:34.911Z,1021.20
2019-03-23T07:04:34.929Z,1021.20
2019-03-23T07:05:34.941Z,1021.21
2019-03-23T07:06:34.925Z,1021.22
2019-03-23T07:07:34.935Z,1021.22
2019-03-23T07:08:34.922Z,1021.27
2019-03-23T07:09:34.946Z,1021.22
2019-03-23T07:10:34.961Z,1021.18
2019-03-23T07:11:34.968Z,1021.15
2019-03-23T07:12:34.953Z,1021.15
2019-03-23T07:13:34.975Z,1021.14
2019-03-23T07:14:34.953Z,1021.12
2019-03-23T07:15:34.989Z,1021.12
2019-03-23T07:16:35.017Z,1021.10
2019-03-23T07:17:34.985Z,1021.11
2019-03-23T07:18:34.990Z,1021.06
2019-03-23T07:19:35.030Z,1021.10
2019-03-23T07:20:34.994Z,1021.09
2019-03-23T07:21:35.046Z,1021.08
2019-03-23T07:22:35.016Z,1021.09
2019-03-23T07:23:35.071Z,1021.11
2019-03-23T07:24:35.077Z,1021.14
2019-03-23T07:25:35.046Z,1021.14
2019-03-23T07:26:35.080Z,1021.15
2019-03-23T07:27:35.079Z,1021.14
2019-03-23T07:28:35.049Z,1021.11
2019-03-23T07:29:35.056Z,1021.15
2019-03-23T07:30:35.101Z,1021.15
2019-03-23T07:31:35.068Z,1021.15
2019-03-23T07:32:35.101Z,1021.18
2019-03-23T07:33:35.085Z,1021.17
2019-03-23T07:34:35.098Z,1021.23
2019-03-23T07:35:35.109Z,1021.24
2019-03-23T07:36:35.276Z,1021.26
2019-03-23T07:37:35.104Z,1021.23
2019-03-23T07:38:35.145Z,1021.23
2019-03-23T07:39:35.133Z,1021.23
2019-03-23T07:40:35.120Z,1021.19
2019-03-23T07:41:35.125Z,1021.24
2019-03-23T07:42:35.132Z,1021.24
2019-03-23T07:43:35.199Z,1021.25
2019-03-23T07:44:35.142Z,1021.27
2019-03-23T07:45:35.174Z,1021.22
2019-03-23T07:46:35.219Z,1021.23
2019-03-23T07:47:35.203Z,1021.26
2019-03-23T07:48:35.161Z,1021.24
2019-03-23T07:49:35.179Z,1021.23
2019-03-23T07:50:35.376Z,1021.24
2019-03-23T07:51:35.215Z,1021.25
2019-03-23T07:52:35.261Z,1021.22
2019-03-23T07:53:35.238Z,1021.27
2019-03-23T07:54:35.222Z,1021.24
2019-03-23T07:55:35.409Z,1021.24
2019-03-23T07:56:35.246Z,1021.20
2019-03-23T07:57:35.258Z,1021.26
2019-03-23T07:58:35.331Z,1021.24
2019-03-23T07:59:35.312Z,1021.25
2019-03-23T08:00:35.253Z,1021.21
2019-03-23T08:01:35.300Z,1021.21
2019-03-23T08:02:35.268Z,1021.25
2019-03-23T08:03:35.260Z,1021.24
2019-03-23T08:04:35.326Z,1021.27
2019-03-23T08:05:35.285Z,1021.24
2019-03-23T08:06:35.295Z,1021.25
2019-03-23T08:07:35.323Z,1021.26
2019-03-23T08:08:35.297Z,1021.24
2019-03-23T08:09:37.933Z,1021.21
2019-03-23T08:10:35.305Z,1021.22
2019-03-23T08:11:35.348Z,1021.16
2019-03-23T08:12:35.343Z,1021.17
2019-03-23T08:13:35.401Z,1021.16
2019-03-23T08:14:36.204Z,1021.15
2019-03-23T08:15:35.369Z,1021.18
2019-03-23T08:16:35.354Z,1021.15
2019-03-23T08:17:35.377Z,1021.17
2019-03-23T08:18:35.366Z,1021.18
2019-03-23T08:19:35.365Z,1021.19
2019-03-23T08:20:35.436Z,1021.20
2019-03-23T08:21:35.383Z,1021.20
2019-03-23T08:22:35.394Z,1021.20
2019-03-23T08:23:35.407Z,1021.18
2019-03-23T08:24:35.471Z,1021.20
2019-03-23T08:25:35.413Z,1021.22
2019-03-23T08:26:35.415Z,1021.20
2019-03-23T08:27:35.423Z,1021.20
2019-03-23T08:28:35.437Z,1021.18
2019-03-23T08:29:36.057Z,1021.13
2019-03-23T08:30:35.468Z,1021.12
2019-03-23T08:31:35.467Z,1021.12
2019-03-23T08:32:35.460Z,1021.14
2019-03-23T08:33:35.480Z,1021.10
2019-03-23T08:34:35.483Z,1021.12
2019-03-23T08:35:35.531Z,1021.14
2019-03-23T08:36:35.501Z,1021.16
2019-03-23T08:37:35.495Z,1021.14
2019-03-23T08:38:35.502Z,1021.15
2019-03-23T08:39:35.507Z,1021.16
2019-03-23T08:40:35.926Z,1021.10
2019-03-23T08:41:35.530Z,1021.09
2019-03-23T08:42:35.581Z,1021.16
2019-03-23T08:43:35.589Z,1021.12
2019-03-23T08:44:35.592Z,1021.07
2019-03-23T08:45:35.563Z,1021.11
2019-03-23T08:46:35.573Z,1021.12
2019-03-23T08:47:35.557Z,1021.13
2019-03-23T08:48:35.663Z,1021.06
2019-03-23T08:49:35.583Z,1021.04
2019-03-23T08:50:35.577Z,1021.00
2019-03-23T08:51:36.072Z,1021.04
2019-03-23T08:52:35.600Z,1021.04
2019-03-23T08:53:35.608Z,1021.02
2019-03-23T08:54:35.612Z,1021.00
2019-03-23T08:55:35.612Z,1020.95
2019-03-23T08:56:37.357Z,1021.00
2019-03-23T08:57:35.609Z,1021.01
2019-03-23T08:58:35.645Z,1020.98
2019-03-23T08:59:35.641Z,1020.98
2019-03-23T09:00:35.834Z,1020.99
2019-03-23T09:01:36.173Z,1020.98
2019-03-23T09:02:35.681Z,1020.98
2019-03-23T09:03:35.672Z,1020.98
2019-03-23T09:04:35.673Z,1020.98
2019-03-23T09:05:35.679Z,1020.97
2019-03-23T09:06:35.839Z,1020.98
2019-03-23T09:07:35.824Z,1020.98
2019-03-23T09:08:35.768Z,1020.98
2019-03-23T09:09:35.721Z,1020.98
2019-03-23T09:10:35.712Z,1020.95
2019-03-23T09:11:35.754Z,1020.95
2019-03-23T09:12:35.723Z,1021.00
2019-03-23T09:13:40.651Z,1021.02
2019-03-23T09:14:35.767Z,1021.03
2019-03-23T09:15:35.747Z,1021.02
2019-03-23T09:16:35.763Z,1021.03
2019-03-23T09:17:35.760Z,1020.98
2019-03-23T09:18:35.771Z,1020.99
2019-03-23T09:19:35.770Z,1021.00
2019-03-23T09:20:35.846Z,1021.03
2019-03-23T09:21:35.784Z,1021.05
2019-03-23T09:22:35.788Z,1021.05
2019-03-23T09:23:35.821Z,1021.06
2019-03-23T09:24:35.808Z,1021.02
2019-03-23T09:25:35.828Z,1021.05
2019-03-23T09:26:35.834Z,1021.02
2019-03-23T09:27:35.837Z,1021.10
2019-03-23T09:28:36.107Z,1021.08
2019-03-23T09:29:35.860Z,1021.11
2019-03-23T09:30:35.900Z,1021.10
2019-03-23T09:31:35.851Z,1021.11
2019-03-23T09:32:35.879Z,1021.10
2019-03-23T09:33:36.017Z,1021.09
2019-03-23T09:34:35.931Z,1021.09
2019-03-23T09:35:39.393Z,1021.11
2019-03-23T09:36:35.892Z,1021.09
2019-03-23T09:37:38.132Z,1021.10
2019-03-23T09:38:37.425Z,1021.12
2019-03-23T09:39:36.014Z,1021.11
2019-03-23T09:40:36.002Z,1021.11
2019-03-23T09:41:35.956Z,1021.12
2019-03-23T09:42:36.010Z,1021.18
2019-03-23T09:43:36.020Z,1021.19
2019-03-23T09:44:35.972Z,1021.22
2019-03-23T09:45:36.011Z,1021.20
2019-03-23T09:46:35.967Z,1021.24
2019-03-23T09:47:36.011Z,1021.33
2019-03-23T09:48:36.017Z,1021.34
2019-03-23T09:49:35.993Z,1021.35
2019-03-23T09:50:36.008Z,1021.28
2019-03-23T09:51:36.069Z,1021.31
2019-03-23T09:52:36.057Z,1021.34
2019-03-23T09:53:36.018Z,1021.37
2019-03-23T09:54:36.024Z,1021.38
2019-03-23T09:55:36.027Z,1021.34
2019-03-23T09:56:36.126Z,1021.32
2019-03-23T09:57:36.037Z,1021.34
2019-03-23T09:58:36.052Z,1021.34
2019-03-23T09:59:36.054Z,1021.28
2019-03-23T10:00:36.092Z,1021.26
2019-03-23T10:01:36.218Z,1021.29
2019-03-23T10:02:36.081Z,1021.31
2019-03-23T10:03:36.098Z,1021.32
2019-03-23T10:04:36.142Z,1021.37
2019-03-23T10:05:36.098Z,1021.36
2019-03-23T10:06:36.157Z,1021.36
2019-03-23T10:07:36.212Z,1021.40
2019-03-23T10:08:36.115Z,1021.38
2019-03-23T10:09:36.121Z,1021.37
2019-03-23T10:10:36.147Z,1021.36
2019-03-23T10:11:36.189Z,1021.33
2019-03-23T10:12:36.175Z,1021.34
2019-03-23T10:13:36.222Z,1021.36
2019-03-23T10:14:36.163Z,1021.30
2019-03-23T10:15:36.171Z,1021.32
2019-03-23T10:16:36.175Z,1021.30
2019-03-23T10:17:36.261Z,1021.40
2019-03-23T10:18:36.216Z,1021.28
2019-03-23T10:19:36.208Z,1021.27
2019-03-23T10:20:36.233Z,1021.31
2019-03-23T10:21:36.255Z,1021.28
2019-03-23T10:22:36.228Z,1021.29
2019-03-23T10:23:36.271Z,1021.31
2019-03-23T10:24:36.260Z,1021.32
2019-03-23T10:25:36.245Z,1021.36
2019-03-23T10:26:36.272Z,1021.36
2019-03-23T10:27:36.294Z,1021.34
2019-03-23T10:28:36.287Z,1021.33
2019-03-23T10:29:36.306Z,1021.32
2019-03-23T10:30:36.325Z,1021.26
2019-03-23T10:31:36.321Z,1021.29
2019-03-23T10:32:36.291Z,1021.29
2019-03-23T10:33:36.373Z,1021.32
2019-03-23T10:34:36.318Z,1021.32
2019-03-23T10:35:36.347Z,1021.31
2019-03-23T10:36:36.366Z,1021.25
2019-03-23T10:37:36.344Z,1021.28
2019-03-23T10:38:36.460Z,1021.24
2019-03-23T10:39:36.362Z,1021.25
2019-03-23T10:40:36.424Z,1021.26
2019-03-23T10:41:36.392Z,1021.26
2019-03-23T10:42:36.397Z,1021.23
2019-03-23T10:43:36.403Z,1021.23
2019-03-23T10:44:36.410Z,1021.22
2019-03-23T10:45:44.038Z,1021.22
2019-03-23T10:46:36.429Z,1021.23
2019-03-23T10:47:36.562Z,1021.22
2019-03-23T10:48:36.438Z,1021.25
2019-03-23T10:49:36.464Z,1021.20
2019-03-23T10:50:36.829Z,1021.22
2019-03-23T10:51:36.459Z,1021.23
2019-03-23T10:52:36.454Z,1021.23
2019-03-23T10:53:36.503Z,1021.25
2019-03-23T10:54:36.510Z,1021.30
2019-03-23T10:55:36.489Z,1021.32
2019-03-23T10:56:36.589Z,1021.32
2019-03-23T10:57:36.495Z,1021.33
2019-03-23T10:58:36.507Z,1021.35
2019-03-23T10:59:36.507Z,1021.38
2019-03-23T11:00:36.566Z,1021.41
2019-03-23T11:01:36.523Z,1021.36
2019-03-23T11:02:36.537Z,1021.30
2019-03-23T11:03:36.598Z,1021.32
2019-03-23T11:04:36.600Z,1021.36
2019-03-23T11:05:36.641Z,1021.33
2019-03-23T11:06:36.577Z,1021.28
2019-03-23T11:07:36.606Z,1021.29
2019-03-23T11:08:36.612Z,1021.26
2019-03-23T11:09:36.577Z,1021.30
2019-03-23T11:10:41.761Z,1021.31
2019-03-23T11:11:36.659Z,1021.38
2019-03-23T11:12:37.201Z,1021.35
2019-03-23T11:13:36.650Z,1021.40
2019-03-23T11:14:36.661Z,1021.46
2019-03-23T11:15:36.623Z,1021.37
2019-03-23T11:16:36.719Z,1021.39
2019-03-23T11:17:36.662Z,1021.40
2019-03-23T11:18:37.791Z,1021.39
2019-03-23T11:19:36.663Z,1021.40
2019-03-23T11:20:36.688Z,1021.37
2019-03-23T11:21:36.713Z,1021.47
2019-03-23T11:22:37.123Z,1021.36
2019-03-23T11:23:36.699Z,1021.39
2019-03-23T11:24:36.733Z,1021.35
2019-03-23T11:25:36.743Z,1021.30
2019-03-23T11:26:36.745Z,1021.25
2019-03-23T11:27:36.802Z,1021.28
2019-03-23T11:28:36.740Z,1021.25
2019-03-23T11:29:36.773Z,1021.30
2019-03-23T11:30:36.885Z,1021.33
2019-03-23T11:31:36.763Z,1021.36
2019-03-23T11:32:36.797Z,1021.30
2019-03-23T11:33:36.863Z,1021.38
2019-03-23T11:34:36.811Z,1021.33
2019-03-23T11:35:36.847Z,1021.37
2019-03-23T11:36:36.857Z,1021.33
2019-03-23T11:37:36.998Z,1021.29
2019-03-23T11:38:36.832Z,1021.29
2019-03-23T11:39:36.849Z,1021.30
2019-03-23T11:40:36.841Z,1021.33
2019-03-23T11:41:36.836Z,1021.31
2019-03-23T11:42:36.920Z,1021.30
2019-03-23T11:43:36.904Z,1021.35
2019-03-23T11:44:36.873Z,1021.41
2019-03-23T11:45:36.900Z,1021.39
2019-03-23T11:46:36.916Z,1021.42
2019-03-23T11:47:36.925Z,1021.39
2019-03-23T11:48:37.287Z,1021.46
2019-03-23T11:49:37.003Z,1021.46
2019-03-23T11:50:36.955Z,1021.53
2019-03-23T11:51:36.975Z,1021.42
2019-03-23T11:52:37.013Z,1021.51
2019-03-23T11:53:37.018Z,1021.47
2019-03-23T11:54:37.024Z,1021.53
2019-03-23T11:55:36.997Z,1021.51
2019-03-23T11:56:37.038Z,1021.54
2019-03-23T11:57:36.973Z,1021.62
2019-03-23T11:58:37.036Z,1021.58
2019-03-23T11:59:37.024Z,1021.66
2019-03-23T12:00:37.032Z,1021.71
2019-03-23T12:01:37.070Z,1021.66
2019-03-23T12:02:37.013Z,1021.67
2019-03-23T12:03:37.295Z,1021.71
2019-03-23T12:04:37.210Z,1021.66
2019-03-23T12:05:37.082Z,1021.67